Time;durP1;ratioP1;P1;durP2;ratioP2;P2;SDS_P1;SDS_P2;PMS_P1;PMS_P2;Temp;Humidity;BMP_temperature;BMP_pressure;BME280_temperature;BME280_humidity;BME280_pressure;Samples;Min_cycle;Max_cycle;Signal;HPM_P1;HPM_P2
2024/01/20 04:02:20;;;;;;;2.13;1.40;;;22.20;22.50;;;;;;5140575;23;46427;-82
2024/01/20 04:04:46;;;;;;;2.13;1.40;;;22.20;22.50;;;;;;4982280;28;46724;-87
2024/01/20 04:07:12;;;;;;;2.13;1.50;;;22.20;22.50;;;;;;4971826;28;45244;-82
2024/01/20 04:09:38;;;;;;;1.50;1.27;;;22.20;22.50;;;;;;4985505;28;45174;-82
2024/01/20 04:12:05;;;;;;;2.97;1.88;;;22.20;22.50;;;;;;4988834;28;44891;-84
2024/01/20 04:14:32;;;;;;;2.80;1.55;;;22.20;22.50;;;;;;4972388;28;45273;-84
2024/01/20 04:16:57;;;;;;;1.77;1.52;;;22.20;22.40;;;;;;4948780;28;45399;-82
2024/01/20 04:19:24;;;;;;;1.85;1.35;;;22.20;22.40;;;;;;4969147;28;45009;-85
2024/01/20 04:21:49;;;;;;;2.05;1.50;;;22.10;22.40;;;;;;4983992;28;44997;-83
2024/01/20 04:24:15;;;;;;;2.35;1.50;;;22.20;22.40;;;;;;4951680;28;45519;-84
2024/01/20 04:26:41;;;;;;;1.50;1.38;;;22.20;22.40;;;;;;4952259;28;45129;-83
2024/01/20 04:29:08;;;;;;;2.53;1.60;;;22.20;22.40;;;;;;4957595;28;45377;-84
2024/01/20 04:31:34;;;;;;;2.30;1.70;;;22.10;22.40;;;;;;4948101;28;45204;-85
2024/01/20 04:33:59;;;;;;;2.60;1.50;;;22.10;22.40;;;;;;4957057;28;46767;-82
2024/01/20 04:36:25;;;;;;;2.08;1.55;;;22.10;22.40;;;;;;4938345;28;45566;-81
2024/01/20 04:38:51;;;;;;;1.90;1.50;;;22.10;22.40;;;;;;4956530;28;46312;-83
2024/01/20 04:41:17;;;;;;;1.97;1.47;;;22.00;22.30;;;;;;4990995;28;45115;-83
2024/01/20 04:43:43;;;;;;;2.60;1.80;;;22.10;22.40;;;;;;4976337;28;46327;-82
2024/01/20 04:46:08;;;;;;;1.70;1.50;;;22.10;22.40;;;;;;4966243;28;45118;-83
2024/01/20 04:48:34;;;;;;;2.67;1.60;;;22.10;22.40;;;;;;4991545;28;45532;-82
2024/01/20 04:51:00;;;;;;;2.37;1.60;;;22.10;22.40;;;;;;4944468;28;45217;-82
2024/01/20 04:53:26;;;;;;;2.42;1.67;;;22.10;22.40;;;;;;4987473;28;45151;-84
2024/01/20 04:55:51;;;;;;;2.05;1.80;;;22.10;22.40;;;;;;4952981;28;45284;-83
2024/01/20 04:58:17;;;;;;;2.83;1.70;;;22.00;22.30;;;;;;4957106;28;45414;-84
2024/01/20 05:00:44;;;;;;;2.30;1.60;;;22.10;22.40;;;;;;4954429;28;45467;-82
2024/01/20 05:03:10;;;;;;;2.17;1.83;;;22.10;22.40;;;;;;4967380;28;46004;-83
2024/01/20 05:05:38;;;;;;;2.47;1.80;;;22.00;22.30;;;;;;4965118;28;45869;-83
2024/01/20 05:08:04;;;;;;;2.10;1.80;;;22.00;22.40;;;;;;4988210;28;45428;-82
2024/01/20 05:10:30;;;;;;;1.90;1.65;;;22.00;22.30;;;;;;4970209;28;45391;-82
2024/01/20 05:12:56;;;;;;;2.03;1.53;;;22.00;22.30;;;;;;4966687;28;46135;-83
2024/01/20 05:15:22;;;;;;;2.55;1.65;;;22.00;22.40;;;;;;4970107;28;45394;-82
2024/01/20 05:17:47;;;;;;;2.35;1.70;;;22.00;22.30;;;;;;4981093;28;44962;-83
2024/01/20 05:20:16;;;;;;;2.03;1.70;;;22.00;22.40;;;;;;4969735;28;45081;-84
2024/01/20 05:22:42;;;;;;;2.20;1.55;;;22.00;22.40;;;;;;4952943;28;46124;-83
2024/01/20 05:25:09;;;;;;;3.20;2.00;;;22.00;22.40;;;;;;4942560;28;45473;-83
2024/01/20 05:27:35;;;;;;;2.22;1.80;;;22.00;22.40;;;;;;4985063;28;44956;-84
2024/01/20 05:30:01;;;;;;;2.45;1.70;;;22.00;22.40;;;;;;4965934;28;45208;-84
2024/01/20 05:32:26;;;;;;;3.30;2.17;;;22.00;22.40;;;;;;4963252;28;46378;-82
2024/01/20 05:34:55;;;;;;;2.13;1.70;;;21.90;22.30;;;;;;4968376;28;45515;-82
2024/01/20 05:37:21;;;;;;;1.90;1.60;;;22.00;22.40;;;;;;4981004;28;44870;-84
2024/01/20 05:39:47;;;;;;;2.10;1.90;;;21.90;22.40;;;;;;4973917;28;45127;-84
2024/01/20 05:42:14;;;;;;;2.40;1.80;;;21.90;22.30;;;;;;4979600;28;46077;-83
2024/01/20 05:44:41;;;;;;;3.28;2.00;;;22.00;22.40;;;;;;4972048;28;63112;-85
2024/01/20 05:47:07;;;;;;;2.00;1.60;;;21.90;22.40;;;;;;4963414;28;45382;-83
2024/01/20 05:49:33;;;;;;;2.60;2.00;;;21.90;22.40;;;;;;4970266;28;45265;-86
2024/01/20 05:51:59;;;;;;;2.10;1.90;;;21.80;22.30;;;;;;4987621;28;46299;-84
2024/01/20 05:54:25;;;;;;;2.22;1.55;;;21.90;22.40;;;;;;4975499;28;44931;-83
2024/01/20 05:56:51;;;;;;;2.00;1.80;;;21.80;22.30;;;;;;4967221;28;45389;-83
2024/01/20 05:59:16;;;;;;;2.90;2.00;;;21.90;22.40;;;;;;4969512;28;45689;-82
2024/01/20 06:01:42;;;;;;;3.38;2.08;;;21.80;22.40;;;;;;4931498;28;45897;-87
2024/01/20 06:04:08;;;;;;;1.98;1.70;;;21.80;22.40;;;;;;4971572;28;45284;-84
2024/01/20 06:06:34;;;;;;;2.37;1.90;;;21.90;22.40;;;;;;4946362;28;44987;-84
2024/01/20 06:09:00;;;;;;;2.80;2.07;;;21.80;22.40;;;;;;4967915;28;45568;-85
2024/01/20 06:11:26;;;;;;;2.65;2.10;;;21.80;22.40;;;;;;4967804;28;47357;-82
2024/01/20 06:13:52;;;;;;;2.65;2.10;;;21.90;22.40;;;;;;4968082;28;45028;-84
2024/01/20 06:16:18;;;;;;;3.17;2.00;;;21.80;22.40;;;;;;4961257;28;45452;-83
2024/01/20 06:18:44;;;;;;;2.63;2.20;;;21.80;22.40;;;;;;4972864;28;45169;-84
2024/01/20 06:21:10;;;;;;;2.65;1.98;;;21.80;22.40;;;;;;4967338;28;45652;-83
2024/01/20 06:23:36;;;;;;;2.50;2.17;;;21.70;22.30;;;;;;4982147;28;45121;-85
2024/01/20 06:26:03;;;;;;;2.55;2.00;;;21.80;22.40;;;;;;4950170;28;45282;-82
2024/01/20 06:28:29;;;;;;;2.33;2.13;;;21.80;22.40;;;;;;4945848;28;45537;-84
2024/01/20 06:30:56;;;;;;;2.38;2.00;;;21.80;22.40;;;;;;4954191;28;46060;-83
2024/01/20 06:33:21;;;;;;;2.67;2.13;;;21.70;22.30;;;;;;4967183;28;45322;-84
2024/01/20 06:35:47;;;;;;;2.65;2.20;;;21.80;22.40;;;;;;4947467;28;45573;-85
2024/01/20 06:38:13;;;;;;;2.50;2.07;;;21.80;22.40;;;;;;4984146;28;46070;-84
2024/01/20 06:40:39;;;;;;;3.17;2.38;;;21.70;22.40;;;;;;4965512;28;46496;-82
2024/01/20 06:43:06;;;;;;;2.78;2.13;;;21.70;22.40;;;;;;4984830;28;45582;-85
2024/01/20 06:45:33;;;;;;;3.17;2.25;;;21.70;22.40;;;;;;4964786;28;45496;-83
2024/01/20 06:48:00;;;;;;;2.72;2.28;;;21.70;22.40;;;;;;4966228;28;45394;-82
2024/01/20 06:50:26;;;;;;;2.38;2.17;;;21.70;22.40;;;;;;4955573;28;45890;-82
2024/01/20 06:52:51;;;;;;;3.13;2.20;;;21.70;22.40;;;;;;4982922;28;45420;-83
2024/01/20 06:55:17;;;;;;;2.47;2.28;;;21.60;22.40;;;;;;4968810;28;45252;-84
2024/01/20 06:57:47;;;;;;;3.17;2.30;;;21.70;22.40;;;;;;4952769;28;45340;-83
2024/01/20 07:00:14;;;;;;;2.50;2.15;;;21.60;22.40;;;;;;4949516;28;47202;-84
2024/01/20 07:02:39;;;;;;;2.55;2.13;;;21.60;22.40;;;;;;4940565;28;45613;-82
2024/01/20 07:05:05;;;;;;;3.23;2.37;;;21.60;22.40;;;;;;4978210;28;45433;-85
2024/01/20 07:07:31;;;;;;;2.78;2.22;;;21.60;22.40;;;;;;4948193;28;45529;-85
2024/01/20 07:09:57;;;;;;;3.42;2.25;;;21.70;22.40;;;;;;4959250;28;46074;-84
2024/01/20 07:12:24;;;;;;;3.07;2.30;;;21.60;22.40;;;;;;4946098;28;44982;-83
2024/01/20 07:14:50;;;;;;;2.30;2.10;;;21.60;22.40;;;;;;4969541;28;45238;-83
2024/01/20 07:17:16;;;;;;;3.15;2.30;;;21.50;22.40;;;;;;4958175;28;45511;-82
2024/01/20 07:19:42;;;;;;;2.90;2.30;;;21.60;22.40;;;;;;4983808;28;46448;-84
2024/01/20 07:22:08;;;;;;;2.50;2.30;;;21.60;22.40;;;;;;4960814;28;45283;-81
2024/01/20 07:24:34;;;;;;;2.53;2.15;;;21.50;22.40;;;;;;4984697;28;45405;-85
2024/01/20 07:27:00;;;;;;;3.38;2.30;;;21.60;22.40;;;;;;4962025;28;46011;-81
2024/01/20 07:29:26;;;;;;;3.00;2.08;;;21.50;22.40;;;;;;4968598;28;45650;-83
2024/01/20 07:31:51;;;;;;;3.35;2.40;;;21.50;22.40;;;;;;4976162;28;45155;-83
2024/01/20 07:34:18;;;;;;;3.33;2.30;;;21.50;22.50;;;;;;4984524;28;45460;-84
2024/01/20 07:36:44;;;;;;;2.53;2.20;;;21.50;22.40;;;;;;4979627;28;45204;-83
2024/01/20 07:39:10;;;;;;;3.05;2.22;;;21.50;22.40;;;;;;4947905;28;46518;-85
2024/01/20 07:41:36;;;;;;;3.22;2.30;;;21.50;22.50;;;;;;4982163;28;45290;-84
2024/01/20 07:44:02;;;;;;;3.10;2.10;;;21.50;22.40;;;;;;4945093;28;45217;-83
2024/01/20 07:46:29;;;;;;;2.63;2.35;;;21.50;22.40;;;;;;4965432;28;45477;-84
2024/01/20 07:48:55;;;;;;;3.60;2.40;;;21.50;22.50;;;;;;4982576;28;45965;-84
2024/01/20 07:51:20;;;;;;;2.55;2.22;;;21.50;22.50;;;;;;4952708;28;45030;-83
2024/01/20 07:53:47;;;;;;;2.63;2.10;;;21.40;22.40;;;;;;4955111;28;45160;-82
2024/01/20 07:56:15;;;;;;;2.95;2.17;;;21.40;22.40;;;;;;4969783;28;45460;-82
2024/01/20 07:58:41;;;;;;;2.87;2.30;;;21.40;22.40;;;;;;4961146;28;45387;-84
2024/01/20 08:01:07;;;;;;;2.75;2.15;;;21.40;22.40;;;;;;4981378;28;44919;-83
2024/01/20 08:03:33;;;;;;;3.00;2.20;;;21.40;22.40;;;;;;4955348;28;44797;-83
2024/01/20 08:06:00;;;;;;;2.72;2.08;;;21.40;22.40;;;;;;4966922;28;45178;-82
2024/01/20 08:08:26;;;;;;;2.83;2.13;;;21.40;22.40;;;;;;4955651;28;45467;-84
2024/01/20 08:10:52;;;;;;;3.53;2.13;;;21.40;22.40;;;;;;4966597;28;44774;-84
2024/01/20 08:13:19;;;;;;;3.03;2.30;;;21.40;22.50;;;;;;4955074;28;45576;-82
2024/01/20 08:15:45;;;;;;;3.08;2.25;;;21.40;22.50;;;;;;4981111;28;46022;-85
2024/01/20 08:18:11;;;;;;;2.00;1.80;;;21.40;22.50;;;;;;4956540;28;46397;-82
2024/01/20 08:20:37;;;;;;;2.70;2.03;;;21.30;22.50;;;;;;4962549;28;46445;-83
2024/01/20 08:23:03;;;;;;;2.78;2.08;;;21.30;22.50;;;;;;4981287;28;44924;-84
2024/01/20 08:25:29;;;;;;;3.20;2.30;;;21.30;22.50;;;;;;4965664;28;45783;-82
2024/01/20 08:27:55;;;;;;;3.03;2.28;;;21.30;22.50;;;;;;4954267;28;46168;-83
2024/01/20 08:30:21;;;;;;;2.97;2.40;;;21.30;22.50;;;;;;4967255;28;45149;-83
2024/01/20 08:32:47;;;;;;;3.72;2.70;;;21.30;22.50;;;;;;4941495;28;44910;-86
2024/01/20 08:35:14;;;;;;;3.38;2.95;;;21.30;22.50;;;;;;4985983;28;45911;-87
2024/01/20 08:37:40;;;;;;;4.30;3.50;;;21.30;22.50;;;;;;4953117;28;46252;-84
2024/01/20 08:40:09;;;;;;;4.90;3.97;;;21.30;22.50;;;;;;4971685;28;45577;-88
2024/01/20 08:42:35;;;;;;;5.95;4.50;;;21.30;22.50;;;;;;4990315;28;45085;-84
2024/01/20 08:45:02;;;;;;;5.77;4.50;;;21.20;22.50;;;;;;4989346;28;45196;-83
2024/01/20 08:47:28;;;;;;;5.85;4.40;;;21.20;22.50;;;;;;4999770;28;46922;-85
2024/01/20 08:49:56;;;;;;;5.68;4.70;;;21.20;22.50;;;;;;4956695;28;44716;-88
2024/01/20 08:52:22;;;;;;;6.55;5.35;;;21.30;22.60;;;;;;4943518;28;45087;-82
2024/01/20 08:54:48;;;;;;;6.53;5.43;;;21.20;22.50;;;;;;4981602;28;45479;-82
2024/01/20 08:57:14;;;;;;;7.00;4.95;;;21.30;22.60;;;;;;4979314;28;47376;-83
2024/01/20 08:59:40;;;;;;;5.78;4.72;;;21.20;22.50;;;;;;4969423;28;44900;-84
2024/01/20 09:02:06;;;;;;;5.93;4.80;;;21.20;22.50;;;;;;4979107;28;44821;-83
2024/01/20 09:04:34;;;;;;;5.50;4.88;;;21.20;22.60;;;;;;4970201;28;45540;-82
2024/01/20 09:07:02;;;;;;;6.15;4.85;;;21.20;22.60;;;;;;4948791;28;46675;-86
2024/01/20 09:09:28;;;;;;;6.38;5.10;;;21.20;22.60;;;;;;4969303;28;44980;-82
2024/01/20 09:11:53;;;;;;;5.68;4.57;;;21.20;22.60;;;;;;4983384;28;45083;-84
2024/01/20 09:14:19;;;;;;;6.73;4.77;;;21.20;22.60;;;;;;4965809;28;44946;-83
2024/01/20 09:16:45;;;;;;;5.57;4.40;;;21.20;22.60;;;;;;4944143;28;46577;-84
2024/01/20 09:19:11;;;;;;;5.60;4.50;;;21.20;22.60;;;;;;4980074;28;45530;-83
2024/01/20 09:21:36;;;;;;;5.20;4.43;;;21.10;22.60;;;;;;4952230;28;45877;-82
2024/01/20 09:24:03;;;;;;;5.63;4.43;;;21.10;22.60;;;;;;4982396;28;46528;-84
2024/01/20 09:26:29;;;;;;;5.53;4.18;;;21.10;22.60;;;;;;4964386;28;45399;-83
2024/01/20 09:28:54;;;;;;;5.28;4.07;;;21.10;22.60;;;;;;4949220;28;45153;-84
2024/01/20 09:31:20;;;;;;;5.00;4.10;;;21.10;22.60;;;;;;4929679;28;45785;-83
2024/01/20 09:33:46;;;;;;;5.38;4.10;;;21.10;22.60;;;;;;4984307;28;45366;-84
2024/01/20 09:36:12;;;;;;;4.43;3.85;;;21.10;22.60;;;;;;4962439;28;46272;-85
2024/01/20 09:38:38;;;;;;;4.83;3.90;;;21.10;22.60;;;;;;4967466;28;45330;-83
2024/01/20 09:41:09;;;;;;;5.28;4.00;;;21.00;22.60;;;;;;4948674;28;45301;-83
2024/01/20 09:43:37;;;;;;;5.30;3.47;;;21.00;22.70;;;;;;4952092;28;45058;-83
2024/01/20 09:46:25;;;;;;;4.45;3.65;;;21.00;22.60;;;;;;4947267;28;46425;-86
2024/01/20 09:48:55;;;;;;;4.32;3.67;;;21.00;22.60;;;;;;4949804;28;45282;-84
2024/01/20 09:51:24;;;;;;;4.22;3.30;;;21.00;22.70;;;;;;4936623;28;44771;-83
2024/01/20 09:53:54;;;;;;;5.33;3.47;;;21.00;22.70;;;;;;4984766;28;45378;-82
2024/01/20 09:56:20;;;;;;;4.43;3.40;;;20.90;23.10;;;;;;4965574;28;46260;-85
2024/01/20 09:58:46;;;;;;;3.90;3.50;;;21.00;22.70;;;;;;4941181;28;45272;-82
2024/01/20 10:01:12;;;;;;;4.15;3.30;;;21.00;22.70;;;;;;4973748;28;44979;-83
2024/01/20 10:03:40;;;;;;;3.58;2.85;;;20.90;23.10;;;;;;4968545;28;44690;-84
2024/01/20 10:06:05;;;;;;;3.60;3.10;;;20.90;22.70;;;;;;4941179;28;47543;-84
2024/01/20 10:08:31;;;;;;;4.90;3.40;;;20.90;22.70;;;;;;4970242;28;45547;-83
2024/01/20 10:11:07;;;;;;;3.85;3.25;;;20.90;22.70;;;;;;4965281;28;45160;-85
2024/01/20 10:13:33;;;;;;;4.07;3.20;;;20.90;22.70;;;;;;4981387;28;45408;-86
2024/01/20 10:15:58;;;;;;;3.90;3.13;;;20.90;22.70;;;;;;4957598;28;45482;-87
2024/01/20 10:18:24;;;;;;;3.40;3.10;;;20.90;22.70;;;;;;4939259;28;45452;-83
2024/01/20 10:21:01;;;;;;;5.03;2.92;;;20.90;22.70;;;;;;4944328;28;46356;-83
2024/01/20 10:23:27;;;;;;;3.07;2.70;;;20.90;22.70;;;;;;4962099;28;45156;-84
2024/01/20 10:26:00;;;;;;;5.00;2.97;;;20.90;22.70;;;;;;4965033;28;45846;-83
2024/01/20 10:28:26;;;;;;;3.40;2.80;;;20.90;22.70;;;;;;4969517;28;45662;-84
2024/01/20 10:30:52;;;;;;;4.87;3.07;;;20.90;22.70;;;;;;4957263;28;45429;-84
2024/01/20 10:33:17;;;;;;;3.63;2.72;;;20.90;22.70;;;;;;4982021;28;45295;-83
2024/01/20 10:35:43;;;;;;;3.30;2.63;;;20.90;22.80;;;;;;4931867;28;47003;-85
2024/01/20 10:38:12;;;;;;;3.10;2.40;;;20.90;22.80;;;;;;4983289;28;45107;-84
2024/01/20 10:40:38;;;;;;;4.35;2.85;;;20.80;22.70;;;;;;4949006;28;45633;-82
2024/01/20 10:43:07;;;;;;;3.20;2.58;;;20.80;22.80;;;;;;4953360;28;45310;-83
2024/01/20 10:45:35;;;;;;;3.08;2.53;;;20.90;22.80;;;;;;4961787;28;45439;-83
2024/01/20 10:48:14;;;;;;;3.15;2.55;;;20.80;22.80;;;;;;4949678;28;45151;-83
2024/01/20 10:50:46;;;;;;;3.67;2.75;;;20.80;22.80;;;;;;4965356;28;45325;-83
2024/01/20 10:53:12;;;;;;;4.07;2.83;;;20.90;22.80;;;;;;4964307;28;44988;-83
2024/01/20 10:55:40;;;;;;;3.55;2.50;;;20.80;22.80;;;;;;4948964;28;46606;-85
2024/01/20 10:58:07;;;;;;;3.90;2.50;;;20.80;22.80;;;;;;4964827;28;45542;-82
2024/01/20 11:00:33;;;;;;;2.60;2.40;;;20.80;22.80;;;;;;4941117;28;45539;-82
2024/01/20 11:02:59;;;;;;;4.05;2.53;;;20.80;22.80;;;;;;4962946;28;45113;-85
2024/01/20 11:05:25;;;;;;;3.20;2.38;;;20.80;22.80;;;;;;4962115;28;45807;-84
2024/01/20 11:07:58;;;;;;;3.05;2.20;;;20.70;22.80;;;;;;4949450;28;44998;-82
2024/01/20 11:10:24;;;;;;;2.85;2.25;;;20.80;22.90;;;;;;4962496;28;45973;-85
2024/01/20 11:13:05;;;;;;;3.40;2.33;;;20.80;22.90;;;;;;4950951;28;45352;-85
2024/01/20 11:15:32;;;;;;;3.40;2.33;;;20.80;22.90;;;;;;4962421;28;46236;-85
2024/01/20 11:17:58;;;;;;;3.05;2.53;;;20.80;22.90;;;;;;4998182;28;45686;-82
2024/01/20 11:20:25;;;;;;;3.40;2.50;;;20.70;22.90;;;;;;4939177;28;45159;-84
2024/01/20 11:22:50;;;;;;;2.87;2.40;;;20.70;22.90;;;;;;4950911;28;45023;-85
2024/01/20 11:25:18;;;;;;;3.57;2.60;;;20.70;22.90;;;;;;4967076;28;45577;-83
2024/01/20 11:27:53;;;;;;;3.30;2.40;;;20.70;22.90;;;;;;4966751;28;44782;-83
2024/01/20 11:30:29;;;;;;;3.43;2.20;;;20.70;22.90;;;;;;4967082;28;45157;-84
2024/01/20 11:32:57;;;;;;;2.70;2.23;;;20.70;22.90;;;;;;5000850;28;45764;-84
2024/01/20 11:35:23;;;;;;;3.17;2.30;;;20.70;22.90;;;;;;4963916;28;48240;-84
2024/01/20 11:37:50;;;;;;;3.23;2.40;;;20.70;23.00;;;;;;4970500;28;45180;-83
2024/01/20 11:40:15;;;;;;;2.33;2.13;;;20.70;22.90;;;;;;4949253;28;45277;-85
2024/01/20 11:42:41;;;;;;;3.13;2.58;;;20.70;23.00;;;;;;4970587;28;45511;-87
2024/01/20 11:45:07;;;;;;;3.05;2.50;;;20.70;23.00;;;;;;4985851;28;45688;-86
2024/01/20 11:47:34;;;;;;;3.35;2.50;;;20.70;23.00;;;;;;4937678;28;45280;-82
2024/01/20 11:50:00;;;;;;;2.95;2.38;;;20.70;23.00;;;;;;4984009;28;45286;-82
2024/01/20 11:52:26;;;;;;;2.70;2.40;;;20.70;23.00;;;;;;4966293;28;45265;-83
2024/01/20 11:54:52;;;;;;;3.97;3.00;;;20.70;23.10;;;;;;4942028;28;46253;-83
2024/01/20 11:57:44;;;;;;;3.03;2.60;;;20.70;23.00;;;;;;4962403;28;45620;-81
2024/01/20 12:00:17;;;;;;;3.53;2.77;;;20.70;23.10;;;;;;4962153;28;44808;-85
2024/01/20 12:02:46;;;;;;;3.03;2.72;;;20.70;23.10;;;;;;4961212;28;45757;-83
2024/01/20 12:05:15;;;;;;;4.05;3.10;;;20.60;23.10;;;;;;4960800;28;47018;-86
2024/01/20 12:07:41;;;;;;;3.88;3.00;;;20.70;23.10;;;;;;4940552;28;45211;-86
2024/01/20 12:10:16;;;;;;;4.57;2.90;;;20.60;23.10;;;;;;4949301;28;45052;-86
2024/01/20 12:12:42;;;;;;;3.35;3.00;;;20.60;23.20;;;;;;4968434;28;45491;-84
2024/01/20 12:15:09;;;;;;;3.25;2.78;;;20.70;23.20;;;;;;4951953;28;46406;-84
2024/01/20 12:17:35;;;;;;;3.33;2.70;;;20.60;23.20;;;;;;4964961;28;44683;-83
2024/01/20 12:20:08;;;;;;;3.33;2.80;;;20.60;23.20;;;;;;4953787;28;45482;-83
2024/01/20 12:22:36;;;;;;;4.03;3.25;;;20.70;23.30;;;;;;4981590;28;45292;-83
2024/01/20 12:25:01;;;;;;;4.47;2.75;;;20.70;23.30;;;;;;4970983;28;45701;-85
2024/01/20 12:27:30;;;;;;;3.47;3.13;;;20.70;23.30;;;;;;4953685;28;46025;-84
2024/01/20 12:29:56;;;;;;;3.55;2.92;;;20.70;23.30;;;;;;4954715;28;44857;-85
2024/01/20 12:32:22;;;;;;;3.80;3.25;;;20.70;23.30;;;;;;4945054;28;45067;-83
2024/01/20 12:34:48;;;;;;;3.80;3.33;;;20.70;23.30;;;;;;4968685;28;47247;-81
2024/01/20 12:37:14;;;;;;;3.90;3.20;;;20.70;23.40;;;;;;4963827;28;46810;-82
2024/01/20 12:39:40;;;;;;;3.25;2.85;;;20.70;23.40;;;;;;4965877;28;45315;-86
2024/01/20 12:42:06;;;;;;;4.00;3.30;;;20.70;23.40;;;;;;4947769;28;45262;-85
2024/01/20 12:44:32;;;;;;;4.78;3.30;;;20.70;23.40;;;;;;4965504;28;46092;-83
2024/01/20 12:47:00;;;;;;;3.42;2.95;;;20.80;23.40;;;;;;4976082;28;45150;-84
2024/01/20 12:49:26;;;;;;;5.07;3.47;;;20.80;23.50;;;;;;4982846;28;45374;-85
2024/01/20 12:51:51;;;;;;;3.90;3.20;;;20.80;23.50;;;;;;4936477;28;45643;-82
2024/01/20 12:54:18;;;;;;;3.67;3.00;;;20.80;23.50;;;;;;4936424;28;46141;-82
2024/01/20 12:56:45;;;;;;;4.50;3.30;;;20.80;23.50;;;;;;4959206;28;46035;-84
2024/01/20 12:59:11;;;;;;;4.45;3.60;;;20.80;23.50;;;;;;4965025;28;45607;-83
2024/01/20 13:01:37;;;;;;;4.13;3.13;;;20.90;23.60;;;;;;4946768;28;45697;-83
2024/01/20 13:04:03;;;;;;;4.25;3.22;;;20.90;23.60;;;;;;4967607;28;46590;-83
2024/01/20 13:06:31;;;;;;;4.07;3.28;;;20.90;23.60;;;;;;4967041;28;45314;-82
2024/01/20 13:08:58;;;;;;;5.28;3.28;;;20.90;23.60;;;;;;4953586;28;45936;-84
2024/01/20 13:11:23;;;;;;;4.30;3.30;;;20.90;23.60;;;;;;4983493;28;45363;-82
2024/01/20 13:13:50;;;;;;;5.07;3.30;;;21.00;23.60;;;;;;4963301;28;45884;-81
2024/01/20 13:16:16;;;;;;;3.95;3.33;;;20.90;23.60;;;;;;4987634;28;44713;-82
2024/01/20 13:18:42;;;;;;;3.77;3.33;;;21.00;23.60;;;;;;4996215;28;45751;-82
2024/01/20 13:21:08;;;;;;;4.43;3.20;;;21.00;23.60;;;;;;4985295;28;45887;-83
2024/01/20 13:23:34;;;;;;;3.45;3.13;;;21.00;23.60;;;;;;4974799;28;46423;-84
2024/01/20 13:26:01;;;;;;;3.90;2.80;;;21.10;23.60;;;;;;4955256;28;44730;-83
2024/01/20 13:28:28;;;;;;;4.32;3.40;;;21.10;23.70;;;;;;4964525;28;44953;-82
2024/01/20 13:30:54;;;;;;;4.00;3.47;;;21.10;23.70;;;;;;4996841;28;45222;-83
2024/01/20 13:33:19;;;;;;;4.63;3.20;;;21.10;23.70;;;;;;4970153;28;46303;-84
2024/01/20 13:35:45;;;;;;;4.50;3.30;;;21.10;23.70;;;;;;4934583;28;45024;-83
2024/01/20 13:38:11;;;;;;;4.85;3.05;;;21.20;23.70;;;;;;4954594;28;45647;-82
2024/01/20 13:40:39;;;;;;;4.10;3.20;;;21.20;23.70;;;;;;4953266;28;45458;-83
2024/01/20 13:43:05;;;;;;;4.53;3.00;;;21.20;23.70;;;;;;4972181;28;46502;-83
2024/01/20 13:45:31;;;;;;;4.00;3.20;;;21.30;23.70;;;;;;4949515;28;45161;-84
2024/01/20 13:47:57;;;;;;;3.75;2.80;;;21.30;23.70;;;;;;4953216;28;45249;-86
2024/01/20 13:50:24;;;;;;;5.15;3.33;;;21.30;23.70;;;;;;4965596;28;45021;-82
2024/01/20 13:52:50;;;;;;;3.88;3.30;;;21.40;23.70;;;;;;4966817;28;46196;-83
2024/01/20 13:55:16;;;;;;;4.70;3.00;;;21.40;23.60;;;;;;4951270;28;45568;-82
2024/01/20 13:57:42;;;;;;;3.67;3.08;;;21.40;23.60;;;;;;4970972;28;46178;-83
2024/01/20 14:00:15;;;;;;;7.05;3.63;;;21.40;23.60;;;;;;4981391;28;45190;-83
2024/01/20 14:02:43;;;;;;;4.30;3.28;;;21.50;23.60;;;;;;4978061;28;45550;-83
2024/01/20 14:05:15;;;;;;;4.38;3.22;;;21.50;23.60;;;;;;4965591;28;45257;-85
2024/01/20 14:07:41;;;;;;;3.77;3.00;;;21.50;24.10;;;;;;4952220;28;44982;-85
2024/01/20 14:10:07;;;;;;;4.20;3.20;;;21.50;23.60;;;;;;4969533;28;45209;-86
2024/01/20 14:12:32;;;;;;;4.10;3.20;;;21.50;23.60;;;;;;4936928;28;45930;-83
2024/01/20 14:14:58;;;;;;;3.00;2.70;;;21.60;23.60;;;;;;4970501;28;45781;-87
2024/01/20 14:17:24;;;;;;;5.00;3.28;;;21.60;23.60;;;;;;4979881;28;45443;-84
2024/01/20 14:19:50;;;;;;;4.38;2.83;;;21.60;23.50;;;;;;4971116;28;45718;-84
2024/01/20 14:22:20;;;;;;;4.32;3.00;;;21.70;23.50;;;;;;4982083;28;45417;-86
2024/01/20 14:24:47;;;;;;;3.88;2.90;;;21.70;23.50;;;;;;4983181;28;44963;-82
2024/01/20 14:27:12;;;;;;;4.17;3.13;;;21.70;23.50;;;;;;4983512;28;44926;-83
2024/01/20 14:29:38;;;;;;;3.97;2.73;;;21.70;23.50;;;;;;4955470;28;44919;-83
2024/01/20 14:32:06;;;;;;;3.80;2.97;;;21.80;23.50;;;;;;4981288;28;46360;-82
2024/01/20 14:34:32;;;;;;;3.72;2.90;;;21.80;23.40;;;;;;4998781;28;45623;-84
2024/01/20 14:37:00;;;;;;;4.30;3.10;;;21.90;23.50;;;;;;4949577;28;45170;-82
2024/01/20 14:39:28;;;;;;;3.80;2.85;;;21.90;23.40;;;;;;4948702;28;45431;-83
2024/01/20 14:41:53;;;;;;;4.15;2.80;;;21.90;23.40;;;;;;4906329;28;46629;-82
2024/01/20 14:44:19;;;;;;;5.18;2.90;;;22.00;23.40;;;;;;4972229;28;45589;-85
2024/01/20 14:46:45;;;;;;;3.53;2.80;;;22.00;23.40;;;;;;4964990;28;45487;-83
2024/01/20 14:49:11;;;;;;;3.30;2.60;;;22.00;23.40;;;;;;4941669;28;45151;-84
2024/01/20 14:51:37;;;;;;;3.63;2.88;;;21.90;23.30;;;;;;4945455;28;46462;-85
2024/01/20 14:54:04;;;;;;;4.70;3.03;;;22.00;23.30;;;;;;4968873;28;44911;-82
2024/01/20 14:56:31;;;;;;;3.83;2.90;;;22.00;23.30;;;;;;4954127;28;45161;-82
2024/01/20 14:59:01;;;;;;;3.47;2.80;;;22.00;23.30;;;;;;4971162;28;45019;-83
2024/01/20 15:01:30;;;;;;;4.00;3.00;;;22.10;23.30;;;;;;4941944;28;45313;-83
2024/01/20 15:03:56;;;;;;;3.95;2.90;;;22.10;23.20;;;;;;4950864;28;45578;-85
2024/01/20 15:06:22;;;;;;;4.05;3.00;;;22.10;23.20;;;;;;4916536;28;44741;-83
2024/01/20 15:08:48;;;;;;;3.53;2.85;;;22.10;23.20;;;;;;4923195;28;45490;-84
2024/01/20 15:11:14;;;;;;;3.63;2.70;;;22.20;23.20;;;;;;4929682;28;45344;-84
2024/01/20 15:13:39;;;;;;;4.03;2.60;;;22.20;23.10;;;;;;4913759;28;44898;-83
2024/01/20 15:16:05;;;;;;;3.63;2.60;;;22.20;23.10;;;;;;4918525;28;45650;-84
2024/01/20 15:18:31;;;;;;;3.28;2.65;;;22.20;23.10;;;;;;4915833;28;44914;-82
2024/01/20 15:20:57;;;;;;;3.15;2.47;;;22.20;23.00;;;;;;4927925;28;48571;-82
2024/01/20 15:23:23;;;;;;;4.10;2.63;;;22.20;23.00;;;;;;4946092;28;45325;-82
2024/01/20 15:25:49;;;;;;;3.50;2.60;;;22.30;23.00;;;;;;4911440;28;45338;-83
2024/01/20 15:28:15;;;;;;;3.53;2.60;;;22.20;23.00;;;;;;4916082;28;45752;-83
2024/01/20 15:30:41;;;;;;;3.80;2.65;;;22.30;23.00;;;;;;4912789;28;46408;-84
2024/01/20 15:33:08;;;;;;;3.97;2.72;;;22.30;23.00;;;;;;4919644;28;45264;-83
2024/01/20 15:35:37;;;;;;;3.20;2.58;;;22.30;22.90;;;;;;4911270;28;46519;-83
2024/01/20 15:38:04;;;;;;;3.53;2.42;;;22.30;22.90;;;;;;4930087;28;45098;-82
2024/01/20 15:40:30;;;;;;;3.45;2.60;;;22.40;22.90;;;;;;4944643;28;45501;-83
2024/01/20 15:42:56;;;;;;;4.60;2.60;;;22.30;22.90;;;;;;4920231;28;45017;-83
2024/01/20 15:45:21;;;;;;;3.15;2.60;;;22.30;22.90;;;;;;4933434;28;45372;-84
2024/01/20 15:47:47;;;;;;;4.38;2.50;;;22.40;22.90;;;;;;4930285;28;45079;-82
2024/01/20 15:50:13;;;;;;;3.10;2.42;;;22.30;22.80;;;;;;4914465;28;46078;-84
2024/01/20 15:52:39;;;;;;;3.53;2.67;;;22.40;22.80;;;;;;4917102;28;45151;-84
2024/01/20 15:55:06;;;;;;;3.63;2.60;;;22.40;22.80;;;;;;4933345;28;44961;-87
2024/01/20 15:57:32;;;;;;;3.22;2.65;;;22.40;22.80;;;;;;4948592;28;45313;-86
2024/01/20 15:59:58;;;;;;;4.03;2.63;;;22.50;22.80;;;;;;4937893;28;45951;-83
2024/01/20 16:02:26;;;;;;;3.05;2.70;;;22.40;22.70;;;;;;4965507;28;45210;-83
2024/01/20 16:04:51;;;;;;;3.30;2.65;;;22.40;22.70;;;;;;4971034;28;44998;-83
2024/01/20 16:07:17;;;;;;;3.97;2.47;;;22.40;22.70;;;;;;4936098;28;46418;-83
2024/01/20 16:09:43;;;;;;;3.78;2.70;;;22.50;22.70;;;;;;4973162;28;45844;-84
2024/01/20 16:12:09;;;;;;;3.80;2.80;;;22.50;22.70;;;;;;4953695;28;45239;-83
2024/01/20 16:14:34;;;;;;;2.90;2.60;;;22.50;22.70;;;;;;4961526;28;44982;-84
2024/01/20 16:17:00;;;;;;;3.92;2.88;;;22.50;22.70;;;;;;4967696;28;45374;-82
2024/01/20 16:19:26;;;;;;;5.45;3.70;;;22.50;22.70;;;;;;4944045;28;46531;-84
2024/01/20 16:21:53;;;;;;;5.73;4.53;;;22.50;22.70;;;;;;4931291;28;44874;-84
2024/01/20 16:24:19;;;;;;;8.77;6.68;;;22.50;22.60;;;;;;4958645;28;45147;-83
2024/01/20 16:26:45;;;;;;;10.75;7.20;;;22.50;22.70;;;;;;4939578;28;45345;-84
2024/01/20 16:29:11;;;;;;;11.65;7.95;;;22.50;22.60;;;;;;4958676;28;47376;-84
2024/01/20 16:31:40;;;;;;;14.52;10.10;;;22.50;22.50;;;;;;4978159;28;44968;-83
2024/01/20 16:34:08;;;;;;;15.82;10.45;;;22.50;22.60;;;;;;4952849;28;46060;-83
2024/01/20 16:36:34;;;;;;;16.77;11.35;;;22.50;22.50;;;;;;4952859;28;45093;-82
2024/01/20 16:39:00;;;;;;;18.47;12.17;;;22.50;22.50;;;;;;4955485;28;46110;-85
2024/01/20 16:41:27;;;;;;;17.88;12.40;;;22.50;22.50;;;;;;4980729;28;45849;-85
2024/01/20 16:43:53;;;;;;;17.17;12.37;;;22.50;22.40;;;;;;4973845;28;45594;-83